sensor_id;sensor_type;location;lat;lon;timestamp;pressure;altitude;pressure_sealevel;temperature;humidity
44144;BME280;68165;51.920;4.492;2023-03-01T00:01:26;66326.06;;;4.18;91.83
44144;BME280;68165;51.920;4.492;2023-03-01T00:03:54;66318.50;;;4.06;91.98
44144;BME280;68165;51.920;4.492;2023-03-01T00:06:20;66322.94;;;4.10;92.21
44144;BME280;68165;51.920;4.492;2023-03-01T00:08:46;66326.81;;;4.14;92.82
44144;BME280;68165;51.920;4.492;2023-03-01T00:11:24;66331.81;;;4.18;93.23
44144;BME280;68165;51.920;4.492;2023-03-01T00:13:52;66325.72;;;4.13;93.54
44144;BME280;68165;51.920;4.492;2023-03-01T00:16:24;66320.53;;;4.13;93.95
44144;BME280;68165;51.920;4.492;2023-03-01T00:18:50;66319.59;;;4.07;93.89
44144;BME280;68165;51.920;4.492;2023-03-01T00:21:16;66319.59;;;4.07;93.90
44144;BME280;68165;51.920;4.492;2023-03-01T00:23:41;66317.00;;;4.07;94.31
44144;BME280;68165;51.920;4.492;2023-03-01T00:26:09;66313.50;;;4.01;94.69
44144;BME280;68165;51.920;4.492;2023-03-01T00:28:35;66303.34;;;3.97;94.81
44144;BME280;68165;51.920;4.492;2023-03-01T00:31:09;66315.34;;;4.05;95.42
44144;BME280;68165;51.920;4.492;2023-03-01T00:33:35;66311.47;;;4.02;94.84
44144;BME280;68165;51.920;4.492;2023-03-01T00:36:01;66302.78;;;3.96;95.16
44144;BME280;68165;51.920;4.492;2023-03-01T00:38:27;66304.09;;;3.93;95.44
44144;BME280;68165;51.920;4.492;2023-03-01T00:40:52;66302.78;;;3.96;95.95
44144;BME280;68165;51.920;4.492;2023-03-01T00:43:18;66304.81;;;3.96;96.29
44144;BME280;68165;51.920;4.492;2023-03-01T00:45:43;66302.22;;;3.96;96.50
44144;BME280;68165;51.920;4.492;2023-03-01T00:48:09;66295.56;;;3.90;96.25
44144;BME280;68165;51.920;4.492;2023-03-01T00:50:34;66294.66;;;3.91;96.97
44144;BME280;68165;51.920;4.492;2023-03-01T00:53:00;66295.41;;;3.87;97.24
44144;BME280;68165;51.920;4.492;2023-03-01T00:55:25;66301.69;;;3.88;97.16
44144;BME280;68165;51.920;4.492;2023-03-01T00:57:52;66292.44;;;3.82;97.36
44144;BME280;68165;51.920;4.492;2023-03-01T01:00:18;66271.56;;;3.65;97.51
44144;BME280;68165;51.920;4.492;2023-03-01T01:02:44;66293.00;;;3.83;98.01
44144;BME280;68165;51.920;4.492;2023-03-01T01:05:10;66295.22;;;3.85;98.22
44144;BME280;68165;51.920;4.492;2023-03-01T01:07:36;66285.03;;;3.80;98.06
44144;BME280;68165;51.920;4.492;2023-03-01T01:10:02;66294.09;;;3.84;98.12
44144;BME280;68165;51.920;4.492;2023-03-01T01:12:27;66287.09;;;3.80;98.89
44144;BME280;68165;51.920;4.492;2023-03-01T01:14:53;66282.63;;;3.76;99.06
44144;BME280;68165;51.920;4.492;2023-03-01T01:17:18;66283.75;;;3.77;99.10
44144;BME280;68165;51.920;4.492;2023-03-01T01:19:44;66281.72;;;3.77;99.49
44144;BME280;68165;51.920;4.492;2023-03-01T01:22:09;66278.41;;;3.74;99.44
44144;BME280;68165;51.920;4.492;2023-03-01T01:24:35;66285.22;;;3.76;100.00
44144;BME280;68165;51.920;4.492;2023-03-01T01:27:00;66276.91;;;3.68;99.77
44144;BME280;68165;51.920;4.492;2023-03-01T01:29:26;66278.22;;;3.72;99.73
44144;BME280;68165;51.920;4.492;2023-03-01T01:31:51;66277.47;;;3.68;100.00
44144;BME280;68165;51.920;4.492;2023-03-01T01:34:20;66272.66;;;3.66;100.00
44144;BME280;68165;51.920;4.492;2023-03-01T01:36:50;66264.53;;;3.61;100.00
44144;BME280;68165;51.920;4.492;2023-03-01T01:39:16;66263.97;;;3.61;100.00
44144;BME280;68165;51.920;4.492;2023-03-01T01:41:42;66264.53;;;3.61;100.00
44144;BME280;68165;51.920;4.492;2023-03-01T01:44:27;66268.78;;;3.63;100.00
44144;BME280;68165;51.920;4.492;2023-03-01T01:46:59;66259.00;;;3.56;100.00
44144;BME280;68165;51.920;4.492;2023-03-01T01:49:36;66254.38;;;3.50;100.00
44144;BME280;68165;51.920;4.492;2023-03-01T01:52:12;66257.53;;;3.50;100.00
44144;BME280;68165;51.920;4.492;2023-03-01T01:54:46;66254.94;;;3.50;100.00
44144;BME280;68165;51.920;4.492;2023-03-01T01:57:25;66254.19;;;3.47;100.00
44144;BME280;68165;51.920;4.492;2023-03-01T01:59:55;66249.19;;;3.43;100.00
44144;BME280;68165;51.920;4.492;2023-03-01T02:02:22;66234.06;;;3.34;100.00
44144;BME280;68165;51.920;4.492;2023-03-01T02:04:49;66246.81;;;3.38;100.00
44144;BME280;68165;51.920;4.492;2023-03-01T02:07:23;66247.38;;;3.39;100.00
44144;BME280;68165;51.920;4.492;2023-03-01T02:09:51;66234.78;;;3.29;100.00
44144;BME280;68165;51.920;4.492;2023-03-01T02:12:21;66231.84;;;3.32;100.00
44144;BME280;68165;51.920;4.492;2023-03-01T02:14:48;66234.97;;;3.32;100.00
44144;BME280;68165;51.920;4.492;2023-03-01T02:17:16;66234.78;;;3.29;100.00
44144;BME280;68165;51.920;4.492;2023-03-01T02:22:30;66227.78;;;3.25;100.00
44144;BME280;68165;51.920;4.492;2023-03-01T02:28:08;66231.28;;;3.31;100.00
44144;BME280;68165;51.920;4.492;2023-03-01T02:30:36;66215.75;;;3.17;100.00
44144;BME280;68165;51.920;4.492;2023-03-01T02:33:03;66215.19;;;3.16;100.00
44144;BME280;68165;51.920;4.492;2023-03-01T02:35:32;66217.78;;;3.16;100.00
44144;BME280;68165;51.920;4.492;2023-03-01T02:38:00;66215.41;;;3.12;100.00
44144;BME280;68165;51.920;4.492;2023-03-01T02:40:29;66215.75;;;3.17;100.00
44144;BME280;68165;51.920;4.492;2023-03-01T02:42:56;66214.28;;;3.11;100.00
44144;BME280;68165;51.920;4.492;2023-03-01T02:45:22;66218.91;;;3.17;100.00
44144;BME280;68165;51.920;4.492;2023-03-01T02:47:48;66215.59;;;3.14;100.00
44144;BME280;68165;51.920;4.492;2023-03-01T02:53:13;66225.38;;;3.21;100.00
44144;BME280;68165;51.920;4.492;2023-03-01T02:55:41;66215.03;;;3.14;100.00
44144;BME280;68165;51.920;4.492;2023-03-01T02:58:07;66217.22;;;3.16;100.00
44144;BME280;68165;51.920;4.492;2023-03-01T03:00:38;66220.00;;;3.18;100.00
44144;BME280;68165;51.920;4.492;2023-03-01T03:03:10;66215.75;;;3.17;100.00
44144;BME280;68165;51.920;4.492;2023-03-01T03:05:35;66218.19;;;3.14;100.00
44144;BME280;68165;51.920;4.492;2023-03-01T03:08:02;66212.81;;;3.12;100.00
44144;BME280;68165;51.920;4.492;2023-03-01T03:10:34;66220.00;;;3.18;100.00
44144;BME280;68165;51.920;4.492;2023-03-01T03:13:06;66219.66;;;3.20;100.00
44144;BME280;68165;51.920;4.492;2023-03-01T03:15:33;66217.63;;;3.14;100.00
44144;BME280;68165;51.920;4.492;2023-03-01T03:18:02;66215.59;;;3.14;100.00
44144;BME280;68165;51.920;4.492;2023-03-01T03:20:28;66207.63;;;3.12;100.00
44144;BME280;68165;51.920;4.492;2023-03-01T03:22:55;66220.75;;;3.14;100.00
44144;BME280;68165;51.920;4.492;2023-03-01T03:25:22;66211.34;;;3.13;100.00
44144;BME280;68165;51.920;4.492;2023-03-01T03:27:49;66210.97;;;3.08;100.00
44144;BME280;68165;51.920;4.492;2023-03-01T03:30:18;66211.53;;;3.08;100.00
44144;BME280;68165;51.920;4.492;2023-03-01T03:32:46;66210.59;;;3.10;100.00
44144;BME280;68165;51.920;4.492;2023-03-01T03:35:23;66212.63;;;3.09;100.00
44144;BME280;68165;51.920;4.492;2023-03-01T03:37:50;66233.50;;;3.33;100.00
44144;BME280;68165;51.920;4.492;2023-03-01T03:40:40;66217.63;;;3.14;100.00
44144;BME280;68165;51.920;4.492;2023-03-01T03:43:09;66206.00;;;3.03;100.00
44144;BME280;68165;51.920;4.492;2023-03-01T03:45:36;66189.72;;;2.93;100.00
44144;BME280;68165;51.920;4.492;2023-03-01T03:48:04;66192.84;;;3.01;100.00
44144;BME280;68165;51.920;4.492;2023-03-01T03:50:30;66182.16;;;2.81;100.00
44144;BME280;68165;51.920;4.492;2023-03-01T03:52:55;66184.53;;;2.86;100.00
44144;BME280;68165;51.920;4.492;2023-03-01T03:55:21;66186.41;;;2.90;100.00
44144;BME280;68165;51.920;4.492;2023-03-01T03:57:47;66180.69;;;2.82;100.00
44144;BME280;68165;51.920;4.492;2023-03-01T04:00:18;66190.09;;;2.91;100.00
44144;BME280;68165;51.920;4.492;2023-03-01T04:02:46;66174.03;;;2.76;100.00
44144;BME280;68165;51.920;4.492;2023-03-01T04:05:14;66177.72;;;2.77;100.00
44144;BME280;68165;51.920;4.492;2023-03-01T04:07:41;66184.00;;;2.85;100.00
44144;BME280;68165;51.920;4.492;2023-03-01T04:10:15;66169.22;;;2.74;100.00
44144;BME280;68165;51.920;4.492;2023-03-01T04:12:41;66181.03;;;2.80;100.00
44144;BME280;68165;51.920;4.492;2023-03-01T04:15:10;66177.16;;;2.77;100.00
44144;BME280;68165;51.920;4.492;2023-03-01T04:17:40;66177.91;;;2.80;100.00
44144;BME280;68165;51.920;4.492;2023-03-01T04:20:08;66177.16;;;2.77;100.00
44144;BME280;68165;51.920;4.492;2023-03-01T04:22:37;66167.22;;;2.68;100.00
44144;BME280;68165;51.920;4.492;2023-03-01T04:25:03;66150.94;;;2.58;100.00
44144;BME280;68165;51.920;4.492;2023-03-01T04:27:35;66174.78;;;2.72;100.00
44144;BME280;68165;51.920;4.492;2023-03-01T04:30:01;66170.16;;;2.73;100.00
44144;BME280;68165;51.920;4.492;2023-03-01T04:32:27;66174.22;;;2.72;100.00
44144;BME280;68165;51.920;4.492;2023-03-01T04:34:52;66169.41;;;2.70;100.00
44144;BME280;68165;51.920;4.492;2023-03-01T04:37:17;66170.53;;;2.71;100.00
44144;BME280;68165;51.920;4.492;2023-03-01T04:39:43;66163.69;;;2.69;100.00
44144;BME280;68165;51.920;4.492;2023-03-01T04:42:12;66166.47;;;2.72;100.00
44144;BME280;68165;51.920;4.492;2023-03-01T04:44:37;66169.97;;;2.70;100.00
44144;BME280;68165;51.920;4.492;2023-03-01T04:47:03;66160.75;;;2.64;100.00
44144;BME280;68165;51.920;4.492;2023-03-01T04:49:28;66169.41;;;2.70;100.00
44144;BME280;68165;51.920;4.492;2023-03-01T04:51:54;66166.66;;;2.67;100.00
44144;BME280;68165;51.920;4.492;2023-03-01T04:54:19;66167.03;;;2.72;100.00
44144;BME280;68165;51.920;4.492;2023-03-01T04:56:44;66169.59;;;2.72;100.00
44144;BME280;68165;51.920;4.492;2023-03-01T04:59:10;66167.03;;;2.72;100.00
44144;BME280;68165;51.920;4.492;2023-03-01T05:01:37;66174.41;;;2.74;100.00
44144;BME280;68165;51.920;4.492;2023-03-01T05:04:04;66167.94;;;2.71;100.00
44144;BME280;68165;51.920;4.492;2023-03-01T05:06:31;66169.25;;;2.67;100.00
44144;BME280;68165;51.920;4.492;2023-03-01T05:08:57;66170.53;;;2.71;100.00
44144;BME280;68165;51.920;4.492;2023-03-01T05:11:24;66172.75;;;2.73;100.00
44144;BME280;68165;51.920;4.492;2023-03-01T05:13:49;66158.50;;;2.62;100.00
44144;BME280;68165;51.920;4.492;2023-03-01T05:16:21;66158.16;;;2.64;100.00
44144;BME280;68165;51.920;4.492;2023-03-01T05:18:46;66160.19;;;2.64;100.00
44144;BME280;68165;51.920;4.492;2023-03-01T05:21:13;66154.47;;;2.56;100.00
44144;BME280;68165;51.920;4.492;2023-03-01T05:23:42;66155.94;;;2.62;100.00
44144;BME280;68165;51.920;4.492;2023-03-01T05:26:08;66154.66;;;2.59;100.00
44144;BME280;68165;51.920;4.492;2023-03-01T05:28:35;66167.94;;;2.71;100.00
44144;BME280;68165;51.920;4.492;2023-03-01T05:31:00;66160.19;;;2.64;100.00
44144;BME280;68165;51.920;4.492;2023-03-01T05:33:26;66146.53;;;2.54;100.00
44144;BME280;68165;51.920;4.492;2023-03-01T05:35:52;66160.19;;;2.64;100.00
44144;BME280;68165;51.920;4.492;2023-03-01T05:38:19;66156.47;;;2.63;100.00
44144;BME280;68165;51.920;4.492;2023-03-01T05:40:46;66137.09;;;2.45;100.00
44144;BME280;68165;51.920;4.492;2023-03-01T05:43:13;66132.13;;;2.40;100.00
44144;BME280;68165;51.920;4.492;2023-03-01T05:45:40;66137.28;;;2.47;100.00
44144;BME280;68165;51.920;4.492;2023-03-01T05:48:06;66141.00;;;2.49;100.00
44144;BME280;68165;51.920;4.492;2023-03-01T05:50:37;66128.97;;;2.33;100.00
44144;BME280;68165;51.920;4.492;2023-03-01T05:55:37;66129.91;;;2.38;100.00
44144;BME280;68165;51.920;4.492;2023-03-01T05:58:05;66123.09;;;2.30;100.00
44144;BME280;68165;51.920;4.492;2023-03-01T06:00:32;66128.06;;;2.34;100.00
44144;BME280;68165;51.920;4.492;2023-03-01T06:03:01;66112.38;;;2.18;100.00
44144;BME280;68165;51.920;4.492;2023-03-01T06:05:27;66115.34;;;2.23;100.00
44144;BME280;68165;51.920;4.492;2023-03-01T06:07:53;66119.03;;;2.24;100.00
44144;BME280;68165;51.920;4.492;2023-03-01T06:10:20;66114.78;;;2.22;100.00
44144;BME280;68165;51.920;4.492;2023-03-01T06:12:47;66116.44;;;2.24;100.00
44144;BME280;68165;51.920;4.492;2023-03-01T06:15:14;66109.81;;;2.18;100.00
44144;BME280;68165;51.920;4.492;2023-03-01T06:17:42;66102.78;;;2.14;100.00
44144;BME280;68165;51.920;4.492;2023-03-01T06:20:13;66110.53;;;2.21;100.00
44144;BME280;68165;51.920;4.492;2023-03-01T06:22:40;66114.59;;;2.20;100.00
44144;BME280;68165;51.920;4.492;2023-03-01T06:25:06;66109.44;;;2.20;100.00
44144;BME280;68165;51.920;4.492;2023-03-01T06:27:32;66107.78;;;2.18;100.00
44144;BME280;68165;51.920;4.492;2023-03-01T06:29:57;66102.78;;;2.14;100.00
44144;BME280;68165;51.920;4.492;2023-03-01T06:32:22;66104.06;;;2.10;99.64
44144;BME280;68165;51.920;4.492;2023-03-01T06:34:48;66116.81;;;2.22;99.76
44144;BME280;68165;51.920;4.492;2023-03-01T06:37:15;66116.09;;;2.26;100.00
44144;BME280;68165;51.920;4.492;2023-03-01T06:39:40;66117.16;;;2.27;100.00
44144;BME280;68165;51.920;4.492;2023-03-01T06:42:07;66114.78;;;2.22;99.65
44144;BME280;68165;51.920;4.492;2023-03-01T06:44:33;66120.50;;;2.30;99.17
44144;BME280;68165;51.920;4.492;2023-03-01T06:46:58;66130.66;;;2.34;99.20
44144;BME280;68165;51.920;4.492;2023-03-01T06:49:24;66123.81;;;2.33;98.69
44144;BME280;68165;51.920;4.492;2023-03-01T06:51:51;66144.13;;;2.49;98.49
44144;BME280;68165;51.920;4.492;2023-03-01T06:54:16;66128.81;;;2.37;98.06
44144;BME280;68165;51.920;4.492;2023-03-01T06:56:43;66148.56;;;2.53;97.25
44144;BME280;68165;51.920;4.492;2023-03-01T06:59:11;66159.06;;;2.63;96.89
44144;BME280;68165;51.920;4.492;2023-03-01T07:01:36;66172.56;;;2.77;96.51
44144;BME280;68165;51.920;4.492;2023-03-01T07:04:02;66193.25;;;2.92;95.68
44144;BME280;68165;51.920;4.492;2023-03-01T07:06:27;66218.91;;;3.17;95.09
44144;BME280;68165;51.920;4.492;2023-03-01T07:08:54;66237.00;;;3.32;94.14
44144;BME280;68165;51.920;4.492;2023-03-01T07:11:20;66234.41;;;3.32;93.58
44144;BME280;68165;51.920;4.492;2023-03-01T07:13:46;66261.03;;;3.56;92.77
44144;BME280;68165;51.920;4.492;2023-03-01T07:16:11;66273.38;;;3.69;92.01
44144;BME280;68165;51.920;4.492;2023-03-01T07:18:36;66292.81;;;3.87;91.66
44144;BME280;68165;51.920;4.492;2023-03-01T07:21:07;66301.66;;;3.95;90.82
44144;BME280;68165;51.920;4.492;2023-03-01T07:23:33;66325.72;;;4.13;89.72
44144;BME280;68165;51.920;4.492;2023-03-01T07:25:59;66337.72;;;4.28;88.31
44144;BME280;68165;51.920;4.492;2023-03-01T07:28:25;66363.59;;;4.49;86.99
44144;BME280;68165;51.920;4.492;2023-03-01T07:30:51;66377.84;;;4.60;86.00
44144;BME280;68165;51.920;4.492;2023-03-01T07:33:17;66406.34;;;4.88;84.38
44144;BME280;68165;51.920;4.492;2023-03-01T07:35:42;66424.25;;;5.07;83.79
44144;BME280;68165;51.920;4.492;2023-03-01T07:38:08;66454.63;;;5.32;82.73
44144;BME280;68165;51.920;4.492;2023-03-01T07:40:33;66480.34;;;5.58;81.77
44144;BME280;68165;51.920;4.492;2023-03-01T07:42:59;66495.53;;;5.67;79.71
44144;BME280;68165;51.920;4.492;2023-03-01T07:45:27;66504.78;;;5.81;78.26
44144;BME280;68165;51.920;4.492;2023-03-01T07:47:52;66508.28;;;5.86;77.65
44144;BME280;68165;51.920;4.492;2023-03-01T07:50:18;66517.03;;;5.92;76.71
44144;BME280;68165;51.920;4.492;2023-03-01T07:52:46;66525.38;;;5.92;76.29
44144;BME280;68165;51.920;4.492;2023-03-01T07:55:12;66540.19;;;6.10;74.84
44144;BME280;68165;51.920;4.492;2023-03-01T07:57:38;66543.13;;;6.15;74.45
44144;BME280;68165;51.920;4.492;2023-03-01T08:00:04;66551.69;;;6.19;73.96
44144;BME280;68165;51.920;4.492;2023-03-01T08:02:29;66560.19;;;6.29;73.56
44144;BME280;68165;51.920;4.492;2023-03-01T08:04:55;66576.13;;;6.41;73.22
44144;BME280;68165;51.920;4.492;2023-03-01T08:07:20;66582.03;;;6.51;72.07
44144;BME280;68165;51.920;4.492;2023-03-01T08:09:45;66599.81;;;6.67;71.52
44144;BME280;68165;51.920;4.492;2023-03-01T08:12:11;66612.06;;;6.78;71.21
44144;BME280;68165;51.920;4.492;2023-03-01T08:14:36;66614.25;;;6.80;70.60
44144;BME280;68165;51.920;4.492;2023-03-01T08:17:02;66629.50;;;6.89;69.98
44144;BME280;68165;51.920;4.492;2023-03-01T08:19:28;66635.03;;;6.94;69.04
44144;BME280;68165;51.920;4.492;2023-03-01T08:21:54;66649.84;;;7.13;67.99
44144;BME280;68165;51.920;4.492;2023-03-01T08:24:20;66675.09;;;7.31;66.06
44144;BME280;68165;51.920;4.492;2023-03-01T08:26:46;66667.09;;;7.28;64.65
44144;BME280;68165;51.920;4.492;2023-03-01T08:29:11;66676.38;;;7.34;62.40
44144;BME280;68165;51.920;4.492;2023-03-01T08:31:39;66678.75;;;7.39;61.13
44144;BME280;68165;51.920;4.492;2023-03-01T08:34:09;66683.44;;;7.38;59.88
44144;BME280;68165;51.920;4.492;2023-03-01T08:36:39;66730.34;;;7.84;58.88
44144;BME280;68165;51.920;4.492;2023-03-01T08:39:06;66763.69;;;8.21;55.28
44144;BME280;68165;51.920;4.492;2023-03-01T08:41:32;66814.41;;;8.60;53.80
44144;BME280;68165;51.920;4.492;2023-03-01T08:43:57;66817.91;;;8.66;52.60
44144;BME280;68165;51.920;4.492;2023-03-01T08:46:30;66829.22;;;8.78;52.06
44144;BME280;68165;51.920;4.492;2023-03-01T08:48:56;66852.84;;;8.95;51.18
44144;BME280;68165;51.920;4.492;2023-03-01T08:51:22;66865.47;;;9.04;50.27
44144;BME280;68165;51.920;4.492;2023-03-01T08:53:47;66842.03;;;8.90;49.67
44144;BME280;68165;51.920;4.492;2023-03-01T08:56:14;66820.72;;;8.68;49.31
44144;BME280;68165;51.920;4.492;2023-03-01T08:58:39;66812.53;;;8.63;49.40
44144;BME280;68165;51.920;4.492;2023-03-01T09:01:13;66793.25;;;8.41;49.15
44144;BME280;68165;51.920;4.492;2023-03-01T09:03:39;66786.97;;;8.33;48.77
44144;BME280;68165;51.920;4.492;2023-03-01T09:06:06;66777.25;;;8.29;48.59
44144;BME280;68165;51.920;4.492;2023-03-01T09:08:40;66785.63;;;8.36;48.19
44144;BME280;68165;51.920;4.492;2023-03-01T09:11:08;66784.91;;;8.33;48.09
44144;BME280;68165;51.920;4.492;2023-03-01T09:13:35;66786.75;;;8.37;47.51
44144;BME280;68165;51.920;4.492;2023-03-01T09:16:02;66803.09;;;8.47;47.25
44144;BME280;68165;51.920;4.492;2023-03-01T09:18:29;66805.66;;;8.54;47.54
44144;BME280;68165;51.920;4.492;2023-03-01T09:21:12;66845.59;;;8.88;46.98
44144;BME280;68165;51.920;4.492;2023-03-01T09:23:41;66832.41;;;8.79;46.55
44144;BME280;68165;51.920;4.492;2023-03-01T09:26:12;66830.34;;;8.79;46.34
44144;BME280;68165;51.920;4.492;2023-03-01T09:28:38;66836.50;;;8.78;45.81
44144;BME280;68165;51.920;4.492;2023-03-01T09:31:04;66827.56;;;8.77;45.51
44144;BME280;68165;51.920;4.492;2023-03-01T09:33:30;66850.63;;;8.93;45.52
44144;BME280;68165;51.920;4.492;2023-03-01T09:36:01;66863.59;;;9.07;45.75
44144;BME280;68165;51.920;4.492;2023-03-01T09:38:27;66875.84;;;9.18;44.80
44144;BME280;68165;51.920;4.492;2023-03-01T09:40:53;66881.78;;;9.28;44.52
44144;BME280;68165;51.920;4.492;2023-03-01T09:43:25;66920.44;;;9.59;44.49
44144;BME280;68165;51.920;4.492;2023-03-01T09:45:59;66944.94;;;9.81;44.29
44144;BME280;68165;51.920;4.492;2023-03-01T09:48:27;66946.81;;;9.78;43.66
44144;BME280;68165;51.920;4.492;2023-03-01T09:50:54;66944.94;;;9.81;43.54
44144;BME280;68165;51.920;4.492;2023-03-01T09:53:23;66955.19;;;9.86;43.33
44144;BME280;68165;51.920;4.492;2023-03-01T09:59:19;66947.91;;;9.86;42.91
44144;BME280;68165;51.920;4.492;2023-03-01T10:01:54;66965.78;;;9.95;43.12
44144;BME280;68165;51.920;4.492;2023-03-01T10:04:28;66990.50;;;10.20;42.89
44144;BME280;68165;51.920;4.492;2023-03-01T10:09:38;67073.03;;;11.02;40.46
44144;BME280;68165;51.920;4.492;2023-03-01T10:12:13;67111.72;;;11.32;39.89
44144;BME280;68165;51.920;4.492;2023-03-01T10:17:12;67054.81;;;10.81;39.60
44144;BME280;68165;51.920;4.492;2023-03-01T10:19:46;67040.88;;;10.68;40.14
44144;BME280;68165;51.920;4.492;2023-03-01T10:22:18;67053.53;;;10.77;39.96
44144;BME280;68165;51.920;4.492;2023-03-01T10:24:47;67044.22;;;10.71;39.97
44144;BME280;68165;51.920;4.492;2023-03-01T10:27:23;67037.53;;;10.65;40.51
44144;BME280;68165;51.920;4.492;2023-03-01T10:30:13;67017.06;;;10.49;40.89
44144;BME280;68165;51.920;4.492;2023-03-01T10:32:43;67025.81;;;10.54;40.29
44144;BME280;68165;51.920;4.492;2023-03-01T10:38:11;67065.75;;;10.95;39.89
44144;BME280;68165;51.920;4.492;2023-03-01T10:43:15;67029.16;;;10.57;39.65
44144;BME280;68165;51.920;4.492;2023-03-01T10:45:40;67038.66;;;10.66;40.37
44144;BME280;68165;51.920;4.492;2023-03-01T10:48:25;67044.78;;;10.72;40.19
44144;BME280;68165;51.920;4.492;2023-03-01T10:56:14;67080.88;;;11.02;41.05
44144;BME280;68165;51.920;4.492;2023-03-01T10:59:02;67087.97;;;11.06;40.40
44144;BME280;68165;51.920;4.492;2023-03-01T11:01:30;67077.34;;;10.96;40.59
44144;BME280;68165;51.920;4.492;2023-03-01T11:06:34;67074.34;;;10.98;39.84
44144;BME280;68165;51.920;4.492;2023-03-01T11:09:24;67097.06;;;11.17;40.13
44144;BME280;68165;51.920;4.492;2023-03-01T11:11:55;67067.66;;;10.92;39.18
44144;BME280;68165;51.920;4.492;2023-03-01T11:16:49;67086.63;;;11.10;39.91
44144;BME280;68165;51.920;4.492;2023-03-01T11:19:23;67089.66;;;11.08;39.21
44144;BME280;68165;51.920;4.492;2023-03-01T11:27:14;67099.31;;;11.19;40.32
44144;BME280;68165;51.920;4.492;2023-03-01T11:29:55;67110.84;;;11.27;40.00
44144;BME280;68165;51.920;4.492;2023-03-01T11:32:28;67105.59;;;11.27;39.97
44144;BME280;68165;51.920;4.492;2023-03-01T11:35:02;67109.34;;;11.28;40.45
44144;BME280;68165;51.920;4.492;2023-03-01T11:37:36;67117.53;;;11.33;40.76
44144;BME280;68165;51.920;4.492;2023-03-01T11:40:23;67116.78;;;11.37;40.68
44144;BME280;68165;51.920;4.492;2023-03-01T11:43:12;67122.91;;;11.42;40.66
44144;BME280;68165;51.920;4.492;2023-03-01T11:48:45;67110.06;;;11.31;40.63
44144;BME280;68165;51.920;4.492;2023-03-01T11:51:42;67101.53;;;11.21;40.78
44144;BME280;68165;51.920;4.492;2023-03-01T11:56:57;67112.13;;;11.30;40.48
44144;BME280;68165;51.920;4.492;2023-03-01T12:24:06;67102.81;;;11.24;38.14
44144;BME280;68165;51.920;4.492;2023-03-01T12:26:45;67085.91;;;11.07;37.71
44144;BME280;68165;51.920;4.492;2023-03-01T12:29:22;67079.03;;;10.98;38.09
44144;BME280;68165;51.920;4.492;2023-03-01T12:32:13;67077.16;;;11.01;37.52
44144;BME280;68165;51.920;4.492;2023-03-01T12:48:59;67084.00;;;11.10;37.67
44144;BME280;68165;51.920;4.492;2023-03-01T12:51:32;67078.41;;;11.04;37.41
44144;BME280;68165;51.920;4.492;2023-03-01T12:54:02;67091.88;;;11.10;37.82
44144;BME280;68165;51.920;4.492;2023-03-01T12:56:31;67091.47;;;11.12;37.37
44144;BME280;68165;51.920;4.492;2023-03-01T12:59:17;67089.25;;;11.10;37.65
44144;BME280;68165;51.920;4.492;2023-03-01T13:01:55;67063.03;;;10.86;37.66
44144;BME280;68165;51.920;4.492;2023-03-01T13:12:43;67060.25;;;10.83;38.22
44144;BME280;68165;51.920;4.492;2023-03-01T13:15:35;67065.97;;;10.91;37.99
44144;BME280;68165;51.920;4.492;2023-03-01T13:18:04;67048.69;;;10.75;38.25
44144;BME280;68165;51.920;4.492;2023-03-01T13:20:52;67045.34;;;10.72;38.58
44144;BME280;68165;51.920;4.492;2023-03-01T13:31:11;67020.22;;;10.49;38.85
44144;BME280;68165;51.920;4.492;2023-03-01T13:33:59;67017.28;;;10.44;39.36
44144;BME280;68165;51.920;4.492;2023-03-01T13:38:58;67048.69;;;10.75;39.04
44144;BME280;68165;51.920;4.492;2023-03-01T13:47:34;67006.50;;;10.32;40.08
44144;BME280;68165;51.920;4.492;2023-03-01T13:49:58;67016.00;;;10.41;40.04
44144;BME280;68165;51.920;4.492;2023-03-01T13:54:53;67006.31;;;10.37;40.69
44144;BME280;68165;51.920;4.492;2023-03-01T13:57:26;66997.38;;;10.29;40.61
44144;BME280;68165;51.920;4.492;2023-03-01T13:59:54;67005.38;;;10.31;40.09
44144;BME280;68165;51.920;4.492;2023-03-01T14:02:19;66994.81;;;10.21;40.06
44144;BME280;68165;51.920;4.492;2023-03-01T14:04:56;66989.38;;;10.19;41.05
44144;BME280;68165;51.920;4.492;2023-03-01T14:07:22;66978.41;;;10.11;40.86
44144;BME280;68165;51.920;4.492;2023-03-01T14:09:59;66980.63;;;10.13;40.97
44144;BME280;68165;51.920;4.492;2023-03-01T14:18:14;67002.94;;;10.34;40.27
44144;BME280;68165;51.920;4.492;2023-03-01T14:20:43;66990.69;;;10.22;40.72
44144;BME280;68165;51.920;4.492;2023-03-01T14:23:19;66989.56;;;10.21;40.57
44144;BME280;68165;51.920;4.492;2023-03-01T14:25:51;66999.25;;;10.26;40.47
44144;BME280;68165;51.920;4.492;2023-03-01T14:28:18;67021.34;;;10.50;40.51
44144;BME280;68165;51.920;4.492;2023-03-01T14:30:46;66986.78;;;10.19;40.67
44144;BME280;68165;51.920;4.492;2023-03-01T14:36:09;66986.63;;;10.16;40.97
44144;BME280;68165;51.920;4.492;2023-03-01T14:41:16;66980.13;;;10.06;41.05
44144;BME280;68165;51.920;4.492;2023-03-01T14:43:46;66964.13;;;9.94;41.07
44144;BME280;68165;51.920;4.492;2023-03-01T14:49:17;66962.78;;;9.97;41.12
44144;BME280;68165;51.920;4.492;2023-03-01T14:51:59;66964.84;;;9.97;41.08
44144;BME280;68165;51.920;4.492;2023-03-01T14:54:39;66964.84;;;9.97;41.51
44144;BME280;68165;51.920;4.492;2023-03-01T14:57:14;66961.66;;;9.96;41.35
44144;BME280;68165;51.920;4.492;2023-03-01T14:59:41;66954.81;;;9.88;41.81
44144;BME280;68165;51.920;4.492;2023-03-01T15:02:17;66952.75;;;9.88;41.02
44144;BME280;68165;51.920;4.492;2023-03-01T15:04:51;66950.53;;;9.86;41.09
44144;BME280;68165;51.920;4.492;2023-03-01T15:07:18;66946.44;;;9.80;41.03
44144;BME280;68165;51.920;4.492;2023-03-01T15:09:45;66939.94;;;9.76;41.27
44144;BME280;68165;51.920;4.492;2023-03-01T15:12:36;66949.81;;;9.83;41.70
44144;BME280;68165;51.920;4.492;2023-03-01T15:17:55;66930.47;;;9.68;41.34
44144;BME280;68165;51.920;4.492;2023-03-01T15:20:24;66936.63;;;9.66;41.58
44144;BME280;68165;51.920;4.492;2023-03-01T15:22:51;66925.25;;;9.61;41.54
44144;BME280;68165;51.920;4.492;2023-03-01T15:25:19;66920.03;;;9.61;41.83